Main page
METAR-TAF:

METAR-TAF

Airports :

Granada, Spain

Base Aérea de Armilla

latitude: 37-08N, longitude: 003-38-08W, elevation: 700 m

Current weather observation

The report was made 10 hours and 55 minutes ago, at 13:00 UTC
Wind 4 kt from the West/Southwest
Temperature 15°C
Humidity 48%
Pressure 1019 hPa
Visibility 10 km or more
Few clouds at a height of 7000 ft

METAR: LEGA 181300Z 25004KT 9999 FEW070 15/04 Q1019

Time: 00:55 (23:55 UTC)

Forecast

The report was made 9 hours and 55 minutes ago, at 14:00 UTC
Forecast valid from 18 at 15 UTC to 18 at 24 UTC
Wind 4 kt from the North/Northwest
Visibility 10 km or more
Scattered clouds at a height of 4500 ft
Probability 40% :
Temporary
from 18 at 16 UTC to 18 at 20 UTC
Wind 10 kt from the South

TAF: LEGA 181400Z 1815/1824 33004KT 9999 SCT045 PROB40 TEMPO 1816/1820 19010KT

Weather observations and forecasts of more than 4000 airports (METAR and TAF reports).

The available stations are represented by yellow and red dots on the map.

Hover mouse over dot to see the name of the station.

Then click to see weather observations and forecasts.

To change the map : click on the green buttons with a black cross to zoom in, on the green button with a dash to zoom out, or on the green arrows for adjacent maps.


METAR-TAF: